Time;durP1;ratioP1;P1;durP2;ratioP2;P2;SDS_P1;SDS_P2;PMS_P1;PMS_P2;Temp;Humidity;BMP_temperature;BMP_pressure;BME280_temperature;BME280_humidity;BME280_pressure;Samples;Min_cycle;Max_cycle;Signal;HPM_P1;HPM_P2
2024/04/19 00:00:33;;;;;;;;;;;;;;;;;;5442659;26;19999;-78
2024/04/19 00:03:01;;;;;;;;;;;;;;;;;;5440368;26;20351;-78
2024/04/19 00:05:27;;;;;;;;;;;;;;;;;;5439775;26;20021;-77
2024/04/19 00:07:56;;;;;;;;;;;;;;;;;;5441638;26;20002;-78
2024/04/19 00:10:22;;;;;;;;;;;;;;;;;;5453594;26;20014;-79
2024/04/19 00:12:50;;;;;;;;;;;;;;;;;;5447881;26;20021;-77
2024/04/19 00:15:16;;;;;;;;;;;;;;;;;;5439924;26;20002;-77
2024/04/19 00:17:45;;;;;;;;;;;;;;;;;;5436709;26;20020;-77
2024/04/19 00:20:11;;;;;;;;;;;;;;;;;;5453669;26;20014;-78
2024/04/19 00:22:39;;;;;;;;;;;;;;;;;;5446863;26;19999;-80
2024/04/19 00:25:09;;;;;;;;;;;;;;;;;;5451073;26;20025;-77
2024/04/19 00:27:35;;;;;;;;;;;;;;;;;;5451908;26;19998;-77
2024/04/19 00:30:03;;;;;;;;;;;;;;;;;;5453449;26;20532;-77
2024/04/19 00:32:29;;;;;;;;;;;;;;;;;;5443164;26;20002;-79
2024/04/19 00:34:58;;;;;;;;;;;;;;;;;;5451643;26;20392;-78
2024/04/19 00:37:24;;;;;;;;;;;;;;;;;;5451929;26;20367;-78
2024/04/19 00:39:53;;;;;;;;;;;;;;;;;;5454348;26;20002;-78
2024/04/19 00:42:19;;;;;;;;;;;;;;;;;;5453635;26;20011;-77
2024/04/19 00:44:47;;;;;;;;;;;;;;;;;;5443624;26;19999;-76
2024/04/19 00:47:15;;;;;;;;;;;;;;;;;;5414861;26;20003;-78
2024/04/19 00:49:44;;;;;;;;;;;;;;;;;;5431161;26;19995;-77
2024/04/19 00:52:10;;;;;;;;;;;;;;;;;;5431664;26;20007;-78
2024/04/19 00:54:39;;;;;;;;;;;;;;;;;;5451449;26;20428;-77
2024/04/19 00:57:05;;;;;;;;;;;;;;;;;;5454195;26;20485;-79
2024/04/19 00:59:33;;;;;;;;;;;;;;;;;;5456638;26;20002;-77
2024/04/19 01:01:59;;;;;;;;;;;;;;;;;;5419799;26;20010;-78
2024/04/19 01:04:28;;;;;;;;;;;;;;;;;;5419542;26;20014;-78
2024/04/19 01:06:54;;;;;;;;;;;;;;;;;;5441974;26;20400;-78
2024/04/19 01:09:22;;;;;;;;;;;;;;;;;;5460284;26;20002;-78
2024/04/19 01:11:48;;;;;;;;;;;;;;;;;;5461733;26;20021;-80
2024/04/19 01:16:58;;;;;;;;;;;;;;;;;;5454444;26;20454;-81
2024/04/19 01:19:24;;;;;;;;;;;;;;;;;;5480979;26;20462;-79
2024/04/19 01:22:01;;;;;;;;;;;;;;;;;;5498047;26;20020;-79
2024/04/19 01:28:46;;;;;;;;;;;;;;;;;;5467383;26;20002;-79
2024/04/19 01:29:58;;;;;;;;;;;;;;;;;;5383225;26;20518;-78
2024/04/19 01:37:59;;;;;;;;;;;;;;;;;;5202267;27;20518;-79
2024/04/19 01:40:25;;;;;;;;;;;;;;;;;;5217806;27;20006;-80
2024/04/19 01:43:00;;;;;;;;;;;;;;;;;;5428346;26;20051;-79
2024/04/19 01:51:09;;;;;;;;;;;;;;;;;;5375636;26;20004;-82
2024/04/19 02:06:54;;;;;;;;;;;;;;;;;;5302154;27;20000;-78
2024/04/19 02:09:34;;;;;;;;;;;;;;;;;;5436552;26;20010;-79
2024/04/19 02:12:02;;;;;;;;;;;;;;;;;;5463314;26;20082;-79
2024/04/19 02:14:30;;;;;;;;;;;;;;;;;;5460335;26;20017;-79
2024/04/19 02:16:58;;;;;;;;;;;;;;;;;;5457474;26;20025;-78
2024/04/19 02:19:26;;;;;;;;;;;;;;;;;;5459273;26;19999;-80
2024/04/19 02:21:55;;;;;;;;;;;;;;;;;;5457656;26;20034;-77
2024/04/19 02:24:21;;;;;;;;;;;;;;;;;;5456733;26;20021;-79
2024/04/19 02:26:52;;;;;;;;;;;;;;;;;;5456625;26;20002;-78
2024/04/19 02:32:10;;;;;;;;;;;;;;;;;;5389710;26;20110;-79
2024/04/19 02:34:40;;;;;;;;;;;;;;;;;;5455793;26;20006;-78
2024/04/19 02:37:09;;;;;;;;;;;;;;;;;;5453670;26;20405;-77
2024/04/19 02:39:38;;;;;;;;;;;;;;;;;;5455265;26;20022;-78
2024/04/19 02:42:06;;;;;;;;;;;;;;;;;;5456665;26;20020;-79
2024/04/19 02:44:35;;;;;;;;;;;;;;;;;;5455019;26;20497;-79
2024/04/19 02:47:03;;;;;;;;;;;;;;;;;;5453870;26;20089;-79
2024/04/19 02:49:32;;;;;;;;;;;;;;;;;;5457512;26;20002;-79
2024/04/19 02:52:01;;;;;;;;;;;;;;;;;;5458062;26;20029;-80
2024/04/19 02:54:29;;;;;;;;;;;;;;;;;;5466526;26;20028;-78
2024/04/19 02:56:58;;;;;;;;;;;;;;;;;;5491054;26;20094;-81
2024/04/19 02:59:24;;;;;;;;;;;;;;;;;;5495829;26;20033;-79
2024/04/19 03:01:52;;;;;;;;;;;;;;;;;;5497614;26;19998;-79
2024/04/19 03:04:21;;;;;;;;;;;;;;;;;;5498614;26;19998;-79
2024/04/19 03:06:49;;;;;;;;;;;;;;;;;;5491730;26;19998;-80
2024/04/19 03:09:18;;;;;;;;;;;;;;;;;;5493879;26;20013;-80
2024/04/19 03:11:47;;;;;;;;;;;;;;;;;;5496935;26;20028;-80
2024/04/19 03:14:15;;;;;;;;;;;;;;;;;;5491838;26;20021;-79
2024/04/19 03:16:44;;;;;;;;;;;;;;;;;;5475092;26;20058;-78
2024/04/19 03:19:12;;;;;;;;;;;;;;;;;;5469210;26;19998;-78
2024/04/19 03:21:41;;;;;;;;;;;;;;;;;;5479432;26;20025;-79
2024/04/19 03:24:10;;;;;;;;;;;;;;;;;;5478682;26;20002;-79
2024/04/19 03:26:38;;;;;;;;;;;;;;;;;;5490834;26;20024;-78
2024/04/19 03:29:08;;;;;;;;;;;;;;;;;;5484997;26;20017;-79
2024/04/19 03:31:37;;;;;;;;;;;;;;;;;;5493623;26;20020;-78
2024/04/19 03:34:06;;;;;;;;;;;;;;;;;;5489126;26;20002;-77
2024/04/19 03:36:34;;;;;;;;;;;;;;;;;;5489179;26;20005;-78
2024/04/19 03:39:03;;;;;;;;;;;;;;;;;;5493261;26;20020;-79
2024/04/19 03:41:33;;;;;;;;;;;;;;;;;;5495124;26;20010;-80
2024/04/19 03:46:46;;;;;;;;;;;;;;;;;;5412881;26;20021;-79
2024/04/19 03:49:17;;;;;;;;;;;;;;;;;;5486883;26;19998;-80
2024/04/19 03:51:46;;;;;;;;;;;;;;;;;;5485951;26;20331;-79
2024/04/19 03:54:14;;;;;;;;;;;;;;;;;;5491308;26;19997;-80
2024/04/19 03:56:43;;;;;;;;;;;;;;;;;;5461115;26;20334;-79
2024/04/19 03:59:11;;;;;;;;;;;;;;;;;;5498102;26;20423;-82
2024/04/19 04:01:40;;;;;;;;;;;;;;;;;;5497496;26;20002;-82
2024/04/19 04:04:09;;;;;;;;;;;;;;;;;;5498731;26;20034;-82
2024/04/19 04:06:41;;;;;;;;;;;;;;;;;;5495369;26;20358;-80
2024/04/19 04:09:09;;;;;;;;;;;;;;;;;;5495129;26;20350;-80
2024/04/19 04:11:38;;;;;;;;;;;;;;;;;;5494916;26;19998;-81
2024/04/19 04:14:08;;;;;;;;;;;;;;;;;;5491983;26;20462;-77
2024/04/19 04:16:37;;;;;;;;;;;;;;;;;;5491968;26;20032;-78
2024/04/19 04:19:07;;;;;;;;;;;;;;;;;;5492661;26;20001;-80
2024/04/19 04:21:35;;;;;;;;;;;;;;;;;;5475307;26;20028;-80
2024/04/19 04:24:05;;;;;;;;;;;;;;;;;;5479721;26;20350;-78
2024/04/19 04:26:34;;;;;;;;;;;;;;;;;;5488000;26;20461;-78
2024/04/19 04:29:02;;;;;;;;;;;;;;;;;;5486887;26;20009;-77
2024/04/19 04:31:31;;;;;;;;;;;;;;;;;;5475582;26;20093;-78
2024/04/19 04:33:59;;;;;;;;;;;;;;;;;;5484436;26;20002;-79
2024/04/19 04:36:28;;;;;;;;;;;;;;;;;;5480880;26;20025;-80
2024/04/19 04:39:07;;;;;;;;;;;;;;;;;;5486020;26;20010;-79
2024/04/19 04:41:39;;;;;;;;;;;;;;;;;;5491089;26;20297;-77
2024/04/19 04:44:07;;;;;;;;;;;;;;;;;;5491865;26;20021;-79
2024/04/19 04:46:36;;;;;;;;;;;;;;;;;;5489255;26;20331;-80
2024/04/19 04:49:05;;;;;;;;;;;;;;;;;;5494649;26;19998;-79
2024/04/19 04:51:33;;;;;;;;;;;;;;;;;;5492945;26;20002;-77
2024/04/19 04:54:02;;;;;;;;;;;;;;;;;;5492667;26;20017;-80
2024/04/19 04:56:31;;;;;;;;;;;;;;;;;;5489996;26;20593;-79
2024/04/19 04:59:00;;;;;;;;;;;;;;;;;;5481887;26;20002;-78
2024/04/19 05:01:28;;;;;;;;;;;;;;;;;;5498593;26;20021;-79
2024/04/19 05:03:57;;;;;;;;;;;;;;;;;;5495904;26;20009;-83
2024/04/19 05:06:25;;;;;;;;;;;;;;;;;;5496415;26;20362;-79
2024/04/19 05:08:54;;;;;;;;;;;;;;;;;;5495296;26;20029;-78
2024/04/19 05:11:24;;;;;;;;;;;;;;;;;;5493977;26;19997;-78
2024/04/19 05:13:54;;;;;;;;;;;;;;;;;;5481736;26;20017;-78
2024/04/19 05:16:23;;;;;;;;;;;;;;;;;;5496141;26;19998;-80
2024/04/19 05:18:51;;;;;;;;;;;;;;;;;;5490196;26;20045;-79
2024/04/19 05:21:20;;;;;;;;;;;;;;;;;;5480057;26;20002;-79
2024/04/19 05:23:49;;;;;;;;;;;;;;;;;;5477464;26;20002;-78
2024/04/19 05:26:19;;;;;;;;;;;;;;;;;;5472748;26;20006;-79
2024/04/19 05:28:47;;;;;;;;;;;;;;;;;;5488553;26;20014;-79
2024/04/19 05:31:16;;;;;;;;;;;;;;;;;;5488349;26;19998;-78
2024/04/19 05:33:44;;;;;;;;;;;;;;;;;;5488608;26;20025;-78
2024/04/19 05:36:13;;;;;;;;;;;;;;;;;;5485673;26;20408;-78
2024/04/19 05:38:42;;;;;;;;;;;;;;;;;;5489745;26;20032;-77
2024/04/19 05:41:10;;;;;;;;;;;;;;;;;;5494208;26;20025;-79
2024/04/19 05:43:39;;;;;;;;;;;;;;;;;;5481799;26;20006;-77
2024/04/19 05:46:07;;;;;;;;;;;;;;;;;;5475950;26;20037;-78
2024/04/19 05:48:36;;;;;;;;;;;;;;;;;;5476867;26;19997;-78
2024/04/19 05:51:08;;;;;;;;;;;;;;;;;;5484316;26;20002;-80
2024/04/19 05:53:36;;;;;;;;;;;;;;;;;;5484847;26;20013;-79
2024/04/19 05:56:05;;;;;;;;;;;;;;;;;;5479908;26;20025;-80
2024/04/19 05:58:33;;;;;;;;;;;;;;;;;;5482167;26;20028;-79
2024/04/19 06:01:05;;;;;;;;;;;;;;;;;;5489540;26;19998;-80
2024/04/19 06:03:36;;;;;;;;;;;;;;;;;;5489763;26;19998;-80
2024/04/19 06:06:05;;;;;;;;;;;;;;;;;;5478788;26;20006;-80
2024/04/19 06:11:33;;;;;;;;;;;;;;;;;;5465061;26;19998;-80
2024/04/19 06:38:43;;;;;;;;;;;;;;;;;;4635037;21;20004;-80
2024/04/19 06:41:11;;;;;;;;;;;;;;;;;;5367893;26;20004;-80
2024/04/19 06:43:41;;;;;;;;;;;;;;;;;;5367902;26;20000;-82
2024/04/19 06:46:20;;;;;;;;;;;;;;;;;;5365164;26;20012;-81
2024/04/19 06:48:49;;;;;;;;;;;;;;;;;;5374677;26;19999;-79
2024/04/19 06:51:17;;;;;;;;;;;;;;;;;;5377633;26;20008;-82
2024/04/19 06:53:55;;;;;;;;;;;;;;;;;;5370792;26;20022;-79
2024/04/19 06:56:26;;;;;;;;;;;;;;;;;;5362273;26;20000;-79
2024/04/19 06:58:55;;;;;;;;;;;;;;;;;;5361730;26;20019;-82
2024/04/19 07:01:24;;;;;;;;;;;;;;;;;;5355986;26;19996;-81
2024/04/19 07:03:52;;;;;;;;;;;;;;;;;;5368026;26;20034;-80
2024/04/19 07:06:29;;;;;;;;;;;;;;;;;;5365754;26;20000;-81
2024/04/19 07:08:58;;;;;;;;;;;;;;;;;;5371786;26;19999;-80
2024/04/19 07:11:27;;;;;;;;;;;;;;;;;;5367312;26;20012;-80
2024/04/19 07:13:56;;;;;;;;;;;;;;;;;;5367290;26;20353;-81
2024/04/19 07:16:25;;;;;;;;;;;;;;;;;;5369539;26;19999;-81
2024/04/19 07:18:53;;;;;;;;;;;;;;;;;;5376409;26;20084;-80
2024/04/19 07:21:22;;;;;;;;;;;;;;;;;;5375004;26;20004;-79
2024/04/19 07:23:51;;;;;;;;;;;;;;;;;;5364634;26;20027;-78
2024/04/19 07:26:21;;;;;;;;;;;;;;;;;;5362218;26;20043;-79
2024/04/19 07:28:54;;;;;;;;;;;;;;;;;;5357386;26;20004;-81
2024/04/19 07:31:23;;;;;;;;;;;;;;;;;;5341159;26;20004;-80
2024/04/19 07:33:51;;;;;;;;;;;;;;;;;;5345450;26;20031;-80
2024/04/19 07:36:20;;;;;;;;;;;;;;;;;;5350228;26;20000;-81
2024/04/19 07:38:58;;;;;;;;;;;;;;;;;;5349839;26;20023;-80
2024/04/19 07:41:29;;;;;;;;;;;;;;;;;;5345262;26;20019;-80
2024/04/19 07:49:25;;;;;;;;;;;;;;;;;;5345606;26;20352;-81
2024/04/19 07:51:54;;;;;;;;;;;;;;;;;;5345439;26;20000;-80
2024/04/19 07:54:23;;;;;;;;;;;;;;;;;;5346190;26;20489;-81
2024/04/19 07:56:54;;;;;;;;;;;;;;;;;;5341652;26;20004;-80
2024/04/19 07:59:25;;;;;;;;;;;;;;;;;;5335744;26;20000;-79
2024/04/19 08:01:54;;;;;;;;;;;;;;;;;;5342011;26;20457;-79
2024/04/19 08:04:35;;;;;;;;;;;;;;;;;;5345445;26;20008;-79
2024/04/19 08:07:03;;;;;;;;;;;;;;;;;;5349302;26;20004;-79
2024/04/19 08:09:32;;;;;;;;;;;;;;;;;;5357644;26;20000;-79
2024/04/19 08:12:03;;;;;;;;;;;;;;;;;;5362754;26;19996;-79
2024/04/19 08:14:29;;;;;;;;;;;;;;;;;;5361541;26;20550;-79
2024/04/19 08:16:57;;;;;;;;;;;;;;;;;;5360820;26;20008;-81
2024/04/19 08:19:26;;;;;;;;;;;;;;;;;;5360317;26;20098;-81
2024/04/19 08:21:54;;;;;;;;;;;;;;;;;;5332635;26;20004;-80
2024/04/19 08:24:27;;;;;;;;;;;;;;;;;;5347546;26;20003;-79
2024/04/19 08:26:55;;;;;;;;;;;;;;;;;;5357503;26;20004;-80
2024/04/19 08:29:24;;;;;;;;;;;;;;;;;;5360254;26;20036;-82
2024/04/19 08:31:54;;;;;;;;;;;;;;;;;;5358502;26;20026;-80
2024/04/19 08:34:22;;;;;;;;;;;;;;;;;;5357773;26;20015;-79
2024/04/19 08:36:54;;;;;;;;;;;;;;;;;;5320520;26;20488;-81
2024/04/19 08:39:22;;;;;;;;;;;;;;;;;;5329437;26;20067;-82
2024/04/19 08:41:51;;;;;;;;;;;;;;;;;;5350207;26;20388;-82
2024/04/19 08:44:19;;;;;;;;;;;;;;;;;;5360866;26;20026;-82
2024/04/19 08:46:48;;;;;;;;;;;;;;;;;;5357935;26;20031;-81
2024/04/19 08:49:17;;;;;;;;;;;;;;;;;;5354343;26;20000;-81
2024/04/19 08:51:45;;;;;;;;;;;;;;;;;;5345687;26;20008;-82
2024/04/19 08:54:14;;;;;;;;;;;;;;;;;;5353983;26;20000;-81
2024/04/19 08:56:43;;;;;;;;;;;;;;;;;;5354167;26;20012;-82
2024/04/19 08:59:12;;;;;;;;;;;;;;;;;;5351265;26;20012;-82
2024/04/19 09:01:44;;;;;;;;;;;;;;;;;;5351842;26;20012;-81
2024/04/19 09:04:12;;;;;;;;;;;;;;;;;;5352903;26;20000;-82
2024/04/19 09:06:41;;;;;;;;;;;;;;;;;;5350038;26;20090;-82
2024/04/19 09:09:10;;;;;;;;;;;;;;;;;;5349410;26;20004;-81
2024/04/19 09:11:40;;;;;;;;;;;;;;;;;;5354231;26;20000;-79
2024/04/19 09:14:08;;;;;;;;;;;;;;;;;;5328838;26;20039;-82
2024/04/19 09:16:37;;;;;;;;;;;;;;;;;;5342250;26;20012;-81
2024/04/19 09:19:05;;;;;;;;;;;;;;;;;;5357698;26;20373;-81
2024/04/19 09:21:34;;;;;;;;;;;;;;;;;;5342345;26;20015;-82
2024/04/19 09:24:05;;;;;;;;;;;;;;;;;;5354191;26;20000;-82
2024/04/19 09:26:34;;;;;;;;;;;;;;;;;;5351914;26;20019;-81
2024/04/19 09:29:04;;;;;;;;;;;;;;;;;;5340355;26;20023;-81
2024/04/19 09:31:33;;;;;;;;;;;;;;;;;;5316517;26;20027;-81
2024/04/19 09:34:02;;;;;;;;;;;;;;;;;;5317553;26;20008;-81
2024/04/19 09:36:32;;;;;;;;;;;;;;;;;;5319271;26;20008;-81
2024/04/19 09:39:00;;;;;;;;;;;;;;;;;;5337792;26;20020;-81
2024/04/19 09:41:29;;;;;;;;;;;;;;;;;;5364499;26;20022;-80
2024/04/19 09:43:58;;;;;;;;;;;;;;;;;;5362449;26;20497;-79
2024/04/19 09:46:26;;;;;;;;;;;;;;;;;;5334689;26;20052;-80
2024/04/19 09:48:55;;;;;;;;;;;;;;;;;;5317680;26;20008;-80
2024/04/19 09:51:24;;;;;;;;;;;;;;;;;;5336837;26;20043;-81
2024/04/19 09:53:54;;;;;;;;;;;;;;;;;;5352748;26;20066;-81
2024/04/19 09:56:23;;;;;;;;;;;;;;;;;;5353738;26;20004;-80
2024/04/19 09:58:51;;;;;;;;;;;;;;;;;;5355415;26;20027;-80
2024/04/19 10:01:20;;;;;;;;;;;;;;;;;;5355376;26;20000;-79
2024/04/19 10:03:48;;;;;;;;;;;;;;;;;;5354606;26;20004;-81
2024/04/19 10:06:17;;;;;;;;;;;;;;;;;;5355668;26;20019;-81
2024/04/19 10:08:45;;;;;;;;;;;;;;;;;;5349943;26;20023;-79
2024/04/19 10:11:14;;;;;;;;;;;;;;;;;;5350902;26;20086;-79
2024/04/19 10:13:43;;;;;;;;;;;;;;;;;;5337558;26;20004;-80
2024/04/19 10:16:11;;;;;;;;;;;;;;;;;;5339150;26;20004;-80
2024/04/19 10:18:40;;;;;;;;;;;;;;;;;;5345613;26;20023;-81
2024/04/19 10:21:09;;;;;;;;;;;;;;;;;;5349624;26;20020;-80
2024/04/19 10:23:37;;;;;;;;;;;;;;;;;;5349063;26;20538;-80
2024/04/19 10:26:06;;;;;;;;;;;;;;;;;;5349115;26;20019;-80
2024/04/19 10:28:34;;;;;;;;;;;;;;;;;;5347708;26;20000;-80
2024/04/19 10:31:03;;;;;;;;;;;;;;;;;;5350821;26;20027;-80
2024/04/19 10:33:32;;;;;;;;;;;;;;;;;;5350630;26;20008;-80
2024/04/19 10:36:00;;;;;;;;;;;;;;;;;;5358054;26;20407;-80
2024/04/19 10:38:29;;;;;;;;;;;;;;;;;;5348768;26;20098;-80
2024/04/19 10:40:57;;;;;;;;;;;;;;;;;;5350582;26;20000;-80
2024/04/19 10:43:26;;;;;;;;;;;;;;;;;;5333203;26;20016;-80
2024/04/19 10:45:54;;;;;;;;;;;;;;;;;;5346737;26;20472;-81
2024/04/19 10:48:23;;;;;;;;;;;;;;;;;;5350071;26;20027;-80
2024/04/19 10:50:52;;;;;;;;;;;;;;;;;;5351720;26;20012;-81
2024/04/19 10:53:20;;;;;;;;;;;;;;;;;;5351116;26;20012;-81
2024/04/19 10:55:49;;;;;;;;;;;;;;;;;;5350281;26;20027;-81
2024/04/19 10:58:17;;;;;;;;;;;;;;;;;;5350580;26;20425;-81
2024/04/19 11:00:46;;;;;;;;;;;;;;;;;;5351084;26;20020;-82
2024/04/19 11:03:14;;;;;;;;;;;;;;;;;;5350101;26;20082;-82
2024/04/19 11:05:43;;;;;;;;;;;;;;;;;;5336013;26;20003;-82
2024/04/19 11:08:11;;;;;;;;;;;;;;;;;;5360623;26;20023;-83
2024/04/19 11:10:40;;;;;;;;;;;;;;;;;;5363322;26;20004;-83
2024/04/19 11:13:09;;;;;;;;;;;;;;;;;;5348691;26;20067;-81
2024/04/19 11:15:37;;;;;;;;;;;;;;;;;;5367050;26;20067;-82
2024/04/19 11:18:07;;;;;;;;;;;;;;;;;;5366400;26;20007;-82
2024/04/19 11:20:36;;;;;;;;;;;;;;;;;;5351642;26;20403;-80
2024/04/19 11:23:04;;;;;;;;;;;;;;;;;;5349462;26;20093;-80
2024/04/19 11:25:34;;;;;;;;;;;;;;;;;;5349201;26;20019;-80
2024/04/19 11:28:03;;;;;;;;;;;;;;;;;;5339242;26;19930;-80
2024/04/19 11:30:31;;;;;;;;;;;;;;;;;;5349479;26;20290;-81
2024/04/19 11:33:00;;;;;;;;;;;;;;;;;;5349433;26;19942;-81
2024/04/19 11:35:28;;;;;;;;;;;;;;;;;;5353198;26;19938;-81
2024/04/19 11:37:57;;;;;;;;;;;;;;;;;;5344546;26;20012;-80
2024/04/19 11:40:23;;;;;;;;;;;;;;;;;;5341689;26;19942;-79
2024/04/19 11:42:53;;;;;;;;;;;;;;;;;;5337533;26;19980;-79
2024/04/19 11:45:21;;;;;;;;;;;;;;;;;;5348042;26;20295;-82
2024/04/19 11:47:50;;;;;;;;;;;;;;;;;;5348551;26;20375;-82
2024/04/19 11:50:18;;;;;;;;;;;;;;;;;;5349330;26;19930;-82
2024/04/19 11:52:47;;;;;;;;;;;;;;;;;;5351992;26;19938;-81
2024/04/19 11:55:16;;;;;;;;;;;;;;;;;;5361529;26;19937;-83
2024/04/19 11:57:44;;;;;;;;;;;;;;;;;;5362932;26;19938;-82
2024/04/19 12:00:13;;;;;;;;;;;;;;;;;;5349206;26;20015;-81
2024/04/19 12:02:41;;;;;;;;;;;;;;;;;;5319529;26;20023;-80
2024/04/19 12:05:10;;;;;;;;;;;;;;;;;;5347195;26;20020;-81
2024/04/19 12:07:38;;;;;;;;;;;;;;;;;;5347291;26;20066;-82
2024/04/19 12:10:07;;;;;;;;;;;;;;;;;;5348456;26;20094;-81
2024/04/19 12:12:36;;;;;;;;;;;;;;;;;;5347665;26;20364;-80
2024/04/19 12:15:04;;;;;;;;;;;;;;;;;;5348016;26;20018;-80
2024/04/19 12:17:33;;;;;;;;;;;;;;;;;;5348145;26;20492;-83
2024/04/19 12:20:01;;;;;;;;;;;;;;;;;;5347685;26;20020;-81
2024/04/19 12:22:30;;;;;;;;;;;;;;;;;;5348570;26;20016;-82
2024/04/19 12:24:58;;;;;;;;;;;;;;;;;;5348918;26;20000;-80
2024/04/19 12:27:24;;;;;;;;;;;;;;;;;;5349026;26;20424;-82
2024/04/19 12:29:53;;;;;;;;;;;;;;;;;;5351465;26;20523;-81
2024/04/19 12:32:22;;;;;;;;;;;;;;;;;;5353601;26;20008;-81
2024/04/19 12:34:50;;;;;;;;;;;;;;;;;;5356867;26;20055;-83
2024/04/19 12:37:19;;;;;;;;;;;;;;;;;;5361254;26;20415;-83
2024/04/19 12:39:47;;;;;;;;;;;;;;;;;;5354232;26;20090;-80
2024/04/19 12:42:16;;;;;;;;;;;;;;;;;;5352920;26;20015;-82
2024/04/19 12:44:47;;;;;;;;;;;;;;;;;;5351357;26;20371;-82
2024/04/19 12:47:16;;;;;;;;;;;;;;;;;;5349511;26;20102;-83
2024/04/19 12:49:44;;;;;;;;;;;;;;;;;;5350119;26;20007;-80
2024/04/19 12:52:13;;;;;;;;;;;;;;;;;;5349881;26;20012;-81
2024/04/19 12:54:41;;;;;;;;;;;;;;;;;;5349325;26;20012;-81
2024/04/19 12:57:10;;;;;;;;;;;;;;;;;;5351140;26;20023;-84
2024/04/19 12:59:39;;;;;;;;;;;;;;;;;;5350497;26;20011;-81
2024/04/19 13:02:07;;;;;;;;;;;;;;;;;;5340894;26;20063;-81
2024/04/19 13:04:36;;;;;;;;;;;;;;;;;;5338325;26;20016;-80
2024/04/19 13:07:04;;;;;;;;;;;;;;;;;;5349725;26;20492;-82
2024/04/19 13:09:33;;;;;;;;;;;;;;;;;;5349998;26;20012;-80
2024/04/19 13:12:02;;;;;;;;;;;;;;;;;;5350851;26;20086;-80
2024/04/19 13:14:30;;;;;;;;;;;;;;;;;;5349807;26;20000;-80
2024/04/19 13:16:59;;;;;;;;;;;;;;;;;;5352120;26;20073;-83
2024/04/19 13:19:27;;;;;;;;;;;;;;;;;;5350773;26;20026;-81
2024/04/19 13:21:56;;;;;;;;;;;;;;;;;;5345632;26;20004;-81
2024/04/19 13:24:24;;;;;;;;;;;;;;;;;;5346434;26;20016;-81
2024/04/19 13:26:53;;;;;;;;;;;;;;;;;;5348587;26;20032;-81
2024/04/19 13:29:22;;;;;;;;;;;;;;;;;;5349265;26;20030;-82
2024/04/19 13:31:51;;;;;;;;;;;;;;;;;;5346992;26;20023;-80
2024/04/19 13:34:19;;;;;;;;;;;;;;;;;;5347616;26;20026;-80
2024/04/19 13:36:48;;;;;;;;;;;;;;;;;;5346814;26;20011;-80
2024/04/19 13:39:16;;;;;;;;;;;;;;;;;;5340128;26;20023;-80
2024/04/19 13:41:45;;;;;;;;;;;;;;;;;;5341852;26;20425;-80
2024/04/19 13:44:14;;;;;;;;;;;;;;;;;;5342487;26;20032;-82
2024/04/19 13:46:42;;;;;;;;;;;;;;;;;;5331865;26;20023;-82
2024/04/19 13:49:11;;;;;;;;;;;;;;;;;;5338519;26;20003;-82
2024/04/19 13:51:39;;;;;;;;;;;;;;;;;;5336887;26;20471;-82
2024/04/19 13:54:09;;;;;;;;;;;;;;;;;;5345513;26;20027;-83
2024/04/19 13:56:37;;;;;;;;;;;;;;;;;;5331788;26;20058;-82
2024/04/19 13:59:07;;;;;;;;;;;;;;;;;;5344830;26;20003;-82
2024/04/19 14:01:36;;;;;;;;;;;;;;;;;;5338174;26;19999;-81
2024/04/19 14:04:04;;;;;;;;;;;;;;;;;;5327926;26;20089;-83
2024/04/19 14:06:33;;;;;;;;;;;;;;;;;;5350419;26;20516;-82
2024/04/19 14:09:05;;;;;;;;;;;;;;;;;;5357754;26;20023;-81
2024/04/19 14:11:34;;;;;;;;;;;;;;;;;;5363613;26;20798;-80
2024/04/19 14:14:03;;;;;;;;;;;;;;;;;;5367485;26;20000;-82
2024/04/19 14:16:31;;;;;;;;;;;;;;;;;;5361578;26;20003;-82
2024/04/19 14:19:00;;;;;;;;;;;;;;;;;;5361996;26;20026;-78
2024/04/19 14:21:29;;;;;;;;;;;;;;;;;;5363285;26;20000;-79
2024/04/19 14:23:58;;;;;;;;;;;;;;;;;;5343101;26;20470;-79
2024/04/19 14:26:26;;;;;;;;;;;;;;;;;;5316001;26;20005;-79
2024/04/19 14:28:55;;;;;;;;;;;;;;;;;;5338700;26;20086;-81
2024/04/19 14:31:23;;;;;;;;;;;;;;;;;;5350547;26;20208;-82
2024/04/19 14:33:52;;;;;;;;;;;;;;;;;;5341684;26;20554;-81
2024/04/19 14:36:21;;;;;;;;;;;;;;;;;;5314993;26;20048;-80
2024/04/19 14:38:49;;;;;;;;;;;;;;;;;;5337544;26;20027;-80
2024/04/19 14:41:18;;;;;;;;;;;;;;;;;;5360057;26;20022;-81
2024/04/19 14:43:46;;;;;;;;;;;;;;;;;;5349789;26;20031;-81
2024/04/19 14:46:15;;;;;;;;;;;;;;;;;;5349335;26;20004;-78
2024/04/19 14:48:44;;;;;;;;;;;;;;;;;;5347159;26;20012;-80
2024/04/19 14:51:17;;;;;;;;;;;;;;;;;;5343975;26;20469;-80
2024/04/19 14:53:46;;;;;;;;;;;;;;;;;;5344391;26;19999;-81
2024/04/19 14:56:16;;;;;;;;;;;;;;;;;;5323174;26;20469;-82
2024/04/19 14:58:45;;;;;;;;;;;;;;;;;;5332661;26;20004;-83
2024/04/19 15:01:14;;;;;;;;;;;;;;;;;;5341722;26;20442;-80
2024/04/19 15:03:44;;;;;;;;;;;;;;;;;;5342188;26;20078;-81
2024/04/19 15:06:13;;;;;;;;;;;;;;;;;;5349655;26;20004;-80
2024/04/19 15:08:41;;;;;;;;;;;;;;;;;;5343255;26;20437;-82
2024/04/19 15:11:10;;;;;;;;;;;;;;;;;;5346452;26;20067;-80
2024/04/19 15:13:38;;;;;;;;;;;;;;;;;;5356730;26;20000;-81
2024/04/19 15:16:08;;;;;;;;;;;;;;;;;;5351676;26;20027;-82
2024/04/19 15:18:37;;;;;;;;;;;;;;;;;;5350149;26;20003;-81
2024/04/19 15:21:06;;;;;;;;;;;;;;;;;;5340004;26;20005;-81
2024/04/19 15:23:35;;;;;;;;;;;;;;;;;;5347035;26;20019;-81
2024/04/19 15:26:03;;;;;;;;;;;;;;;;;;5337945;26;20067;-81
2024/04/19 15:28:32;;;;;;;;;;;;;;;;;;5315345;26;20095;-81
2024/04/19 15:31:02;;;;;;;;;;;;;;;;;;5340305;26;22027;-79
2024/04/19 15:33:30;;;;;;;;;;;;;;;;;;5343928;26;19999;-81
2024/04/19 15:35:59;;;;;;;;;;;;;;;;;;5348664;26;20004;-81
2024/04/19 15:38:28;;;;;;;;;;;;;;;;;;5347934;26;20093;-80
2024/04/19 15:40:56;;;;;;;;;;;;;;;;;;5349010;26;20517;-81
2024/04/19 15:43:25;;;;;;;;;;;;;;;;;;5348296;26;20000;-80
2024/04/19 15:45:54;;;;;;;;;;;;;;;;;;5348191;26;20058;-83
2024/04/19 15:48:20;;;;;;;;;;;;;;;;;;5347956;26;20387;-80
2024/04/19 15:50:48;;;;;;;;;;;;;;;;;;5348545;26;20023;-81
2024/04/19 15:53:18;;;;;;;;;;;;;;;;;;5349284;26;20012;-83
2024/04/19 15:55:47;;;;;;;;;;;;;;;;;;5354983;26;20003;-80
2024/04/19 15:58:16;;;;;;;;;;;;;;;;;;5350375;26;20355;-81
2024/04/19 16:00:45;;;;;;;;;;;;;;;;;;5352003;26;20463;-81
2024/04/19 16:03:15;;;;;;;;;;;;;;;;;;5350445;26;20004;-82
2024/04/19 16:05:45;;;;;;;;;;;;;;;;;;5336191;26;20036;-81
2024/04/19 16:08:15;;;;;;;;;;;;;;;;;;5348340;26;20022;-81
2024/04/19 16:10:44;;;;;;;;;;;;;;;;;;5342159;26;19996;-82
2024/04/19 16:13:12;;;;;;;;;;;;;;;;;;5363222;26;20000;-82
2024/04/19 16:15:41;;;;;;;;;;;;;;;;;;5355925;26;20004;-84
2024/04/19 16:18:09;;;;;;;;;;;;;;;;;;5353930;26;20490;-83
2024/04/19 16:20:38;;;;;;;;;;;;;;;;;;5347500;26;20015;-82
2024/04/19 16:23:06;;;;;;;;;;;;;;;;;;5363822;26;20026;-80
2024/04/19 16:25:35;;;;;;;;;;;;;;;;;;5364032;26;20062;-81
2024/04/19 16:28:04;;;;;;;;;;;;;;;;;;5346691;26;20058;-79
2024/04/19 16:30:32;;;;;;;;;;;;;;;;;;5349886;26;20031;-80
2024/04/19 16:33:02;;;;;;;;;;;;;;;;;;5330127;26;20004;-79
2024/04/19 16:35:30;;;;;;;;;;;;;;;;;;5344067;26;20338;-80
2024/04/19 16:38:00;;;;;;;;;;;;;;;;;;5346491;26;20385;-80
2024/04/19 16:40:28;;;;;;;;;;;;;;;;;;5348889;26;20048;-80
2024/04/19 16:42:57;;;;;;;;;;;;;;;;;;5347149;26;20062;-80
2024/04/19 16:45:29;;;;;;;;;;;;;;;;;;5347743;26;20016;-80
2024/04/19 16:47:58;;;;;;;;;;;;;;;;;;5347735;26;20004;-80
2024/04/19 16:50:27;;;;;;;;;;;;;;;;;;5354453;26;20456;-80
2024/04/19 16:52:55;;;;;;;;;;;;;;;;;;5355047;26;20015;-80
2024/04/19 16:55:24;;;;;;;;;;;;;;;;;;5363812;26;20027;-81
2024/04/19 16:57:52;;;;;;;;;;;;;;;;;;5367670;26;20066;-79
2024/04/19 17:00:19;;;;;;;;;;;;;;;;;;5360829;26;20010;-80
2024/04/19 17:02:47;;;;;;;;;;;;;;;;;;5356183;26;20049;-81
2024/04/19 17:05:17;;;;;;;;;;;;;;;;;;5362291;26;20004;-79
2024/04/19 17:07:46;;;;;;;;;;;;;;;;;;5345273;26;20543;-81
2024/04/19 17:10:15;;;;;;;;;;;;;;;;;;5337096;26;20022;-80
2024/04/19 17:12:43;;;;;;;;;;;;;;;;;;5345908;26;20031;-80
2024/04/19 17:15:14;;;;;;;;;;;;;;;;;;5344677;26;20008;-80
2024/04/19 17:17:42;;;;;;;;;;;;;;;;;;5329674;26;20077;-82
2024/04/19 17:20:11;;;;;;;;;;;;;;;;;;5339370;26;20016;-79
2024/04/19 17:22:40;;;;;;;;;;;;;;;;;;5344866;26;20008;-80
2024/04/19 17:25:08;;;;;;;;;;;;;;;;;;5346163;26;20000;-82
2024/04/19 17:27:37;;;;;;;;;;;;;;;;;;5344399;26;20011;-80
2024/04/19 17:30:06;;;;;;;;;;;;;;;;;;5347969;26;20086;-80
2024/04/19 17:32:35;;;;;;;;;;;;;;;;;;5344723;26;20004;-80
2024/04/19 17:35:06;;;;;;;;;;;;;;;;;;5314338;26;19996;-81
2024/04/19 17:37:34;;;;;;;;;;;;;;;;;;5350039;26;20000;-80
2024/04/19 17:40:03;;;;;;;;;;;;;;;;;;5360208;26;20082;-81
2024/04/19 17:42:32;;;;;;;;;;;;;;;;;;5359713;26;20000;-82
2024/04/19 17:45:01;;;;;;;;;;;;;;;;;;5359666;26;20100;-81
2024/04/19 17:47:29;;;;;;;;;;;;;;;;;;5359685;26;20004;-82
2024/04/19 17:49:58;;;;;;;;;;;;;;;;;;5360378;26;20012;-81
2024/04/19 17:52:26;;;;;;;;;;;;;;;;;;5360766;26;20765;-80
2024/04/19 17:54:55;;;;;;;;;;;;;;;;;;5337540;26;20005;-81
2024/04/19 17:57:24;;;;;;;;;;;;;;;;;;5341288;26;20075;-80
2024/04/19 17:59:52;;;;;;;;;;;;;;;;;;5357912;26;20014;-82
2024/04/19 18:02:21;;;;;;;;;;;;;;;;;;5353982;26;20070;-80
2024/04/19 18:04:49;;;;;;;;;;;;;;;;;;5361195;26;20067;-84